Current Conditions
Mistig



Rainfall
0.00 (mm) - 0.00 (in)
Pressure
1002.92 (hPa) - 29.62 (inHG)
Visibility

2.0 (km) - 1.2 (miles)
   Temperature
0  °C
32°F
-1  °C
Dewpoint
93  %
 Humidity
   Wind Speed
5  km/h
3  kts
3  mph
1.3  m/s
   Wind Direction
 240°
West South
West
   Airport Data
EHLE
Location Lelystad Airport 20 km (12.43 mi)
Metar :EHLE 250925Z AUTO 24003KT 2400 BR NCD M00/M01 Q1003 R05/910095 BECMG 6000 NSW
Mon 25th January 10:25 am
   Raw Metar Info
Raw METAR is the most common format in the world for the transmission of observational weather data. It is highly standardized through the International Civil Aviation Organization (ICAO), which allows it to be understood throughout most of the world.
   API Info
Data Provided by
https://www.checkwx.com/weather/EHLE
   © Info
CSS/SVG/PHP scripts were developed by weather34.com for use in the weather34 template © 2015-2021

Guide Info provided by Metar-Wikipedia